Airfield :
LOGIN :

Register | Disclaimer

   EN    FR    IT 

 










Legend :    VFR   Marginal VFR   IFR   Intensive IFR   Very Intensive IFR
Visi :
Ceiling :
>= 8 km
>= 3000ft
5 to 8 km
1000 to 3000 ft
1500m to 5 km
500 to 1000 ft
800 to 1500m
200 to 500 ft
< 800m
< 200 ft
Symbols :   Thunderstorms  Fog  Heavy snow  Heavy precipitations  Wind > 20 kt
SIGMETs :     Misc.  Thunderstorms  Icing  Turbulence  Mountain Waves  Volcanic Ashes






- Airport Elevation : 327 ft
- IATA code : BHX


EGBB - Birmingham

CURRENT METAR :
  • 100250Z 04007KT 010V070 7000 OVC005 17/15 Q1017

EXPIRED METARs :
  • 100220Z 02007KT 6000 OVC006 17/15 Q1017
  • 100150Z 02006KT 6000 OVC006 17/16 Q1017
  • 100120Z 02007KT 7000 OVC006 17/16 Q1017
  • 100050Z 01007KT 8000 OVC007 17/16 Q1017
  • 100020Z 02007KT 9000 OVC007 17/16 Q1017
  • 092350Z 03007KT 9000 BKN008 17/16 Q1018

TAF AMD TAF EGBB
Valid from the 10 at 00:00 until the 11 at 00:00 UTC


100029Z 1000/1024 03008KT 9999 FEW040
TEMPO 1000/1007 8000 BKN009
PROB30
TEMPO 1003/1006 BKN004
PROB30
TEMPO 1014/1022 VRB20G35KT 2000 +TSGR
ATIS : +44 121 780 0910



MET'MAP, your aeronautical weather chart ! - Copyright ORBIFLY December 2007 - Disclaimer

ORBIFLY MET'MAP TEAM :

Programming & Development : Alexandra Zaïnal
Concept & original design : Baudouin d'Aumeries
Assistance for programming : Marc-Olivier Méhu
Technical & hardware support : Manuel Goepfert

Contact : metmap@orbifly.com




SOURCES & CREDITS :

   NOAA